Terminal Aerodrome Forecast
Issued by NWS

Home | Current Version | Previous Version | Graphics & Text | Print | Product List | Glossary On
Versions: 1 2 3 4 5 6 7 8 9 10 11 12 13 14 15 16 17 18
000
FTUS42 KMHX 280521
TAFOAJ
TAF
KOAJ 280521Z 2806/0106 03008KT P6SM SKC
     FM281400 06012G17KT P6SM SCT150
     FM282200 10008KT P6SM BKN150
     FM010400 10007KT P6SM BKN060
      AMD LTD TO CLD VIS AND WIND=

USA.gov is the U.S. government's official web portal to all federal, state and local government web resources and services.